createdAt,value
2022-09-04T00:02:09.621Z,9.20
2022-09-04T00:04:45.064Z,9.30
2022-09-04T00:07:38.327Z,9.30
2022-09-04T00:10:17.645Z,9.30
2022-09-04T00:12:57.141Z,9.30
2022-09-04T00:15:33.285Z,9.20
2022-09-04T00:18:08.471Z,9.20
2022-09-04T00:20:53.663Z,9.10
2022-09-04T00:23:35.219Z,9.10
2022-09-04T00:26:10.803Z,9.00
2022-09-04T00:28:53.793Z,9.00
2022-09-04T00:31:37.066Z,9.00
2022-09-04T00:34:35.754Z,9.10
2022-09-04T00:37:07.331Z,9.10
2022-09-04T00:40:10.839Z,9.10
2022-09-04T00:43:10.662Z,9.20
2022-09-04T00:45:58.057Z,9.20
2022-09-04T00:48:44.105Z,9.10
2022-09-04T00:51:24.873Z,9.10
2022-09-04T00:54:19.544Z,9.00
2022-09-04T00:57:14.106Z,9.00
2022-09-04T01:00:04.044Z,9.00
2022-09-04T01:02:49.916Z,8.90
2022-09-04T01:05:44.653Z,8.90
2022-09-04T01:08:40.593Z,8.80
2022-09-04T01:11:13.475Z,8.80
2022-09-04T01:13:47.300Z,8.70
2022-09-04T01:16:41.808Z,8.70
2022-09-04T01:19:37.978Z,8.70
2022-09-04T01:22:35.093Z,8.60
2022-09-04T01:25:14.290Z,8.50
2022-09-04T01:27:48.861Z,8.50
2022-09-04T01:30:19.452Z,8.60
2022-09-04T01:32:58.332Z,8.70
2022-09-04T01:35:34.174Z,8.60
2022-09-04T01:38:13.318Z,8.60
2022-09-04T01:41:08.054Z,8.50
2022-09-04T01:43:35.512Z,8.40
2022-09-04T01:46:05.239Z,8.40
2022-09-04T01:48:32.471Z,8.40
2022-09-04T01:51:07.020Z,8.40
2022-09-04T01:53:38.905Z,8.30
2022-09-04T01:56:18.653Z,8.30
2022-09-04T01:58:56.283Z,8.30
2022-09-04T02:01:38.543Z,8.30
2022-09-04T02:04:35.017Z,8.20
2022-09-04T02:07:29.791Z,8.20
2022-09-04T02:10:07.633Z,8.30
2022-09-04T02:12:51.228Z,8.20
2022-09-04T02:15:54.070Z,8.20
2022-09-04T02:18:45.568Z,8.30
2022-09-04T02:21:24.555Z,8.30
2022-09-04T02:24:10.789Z,8.40
2022-09-04T02:26:59.352Z,8.40
2022-09-04T02:29:48.902Z,8.30
2022-09-04T02:32:31.095Z,8.20
2022-09-04T02:35:19.653Z,8.20
2022-09-04T02:38:14.073Z,8.10
2022-09-04T02:41:09.947Z,8.00
2022-09-04T02:43:58.749Z,8.00
2022-09-04T02:46:40.016Z,8.00
2022-09-04T02:49:15.061Z,8.00
2022-09-04T02:52:04.710Z,7.90
2022-09-04T02:55:05.045Z,7.90
2022-09-04T02:57:56.889Z,7.90
2022-09-04T03:00:40.804Z,7.90
2022-09-04T03:03:08.186Z,7.80
2022-09-04T03:05:56.635Z,7.80
2022-09-04T03:08:47.138Z,7.80
2022-09-04T03:11:41.826Z,7.70
2022-09-04T03:14:16.903Z,7.70
2022-09-04T03:16:52.087Z,7.70
2022-09-04T03:19:36.150Z,7.70
2022-09-04T03:22:12.494Z,7.70
2022-09-04T03:25:10.978Z,7.70
2022-09-04T03:27:38.440Z,7.70
2022-09-04T03:30:12.681Z,7.70
2022-09-04T03:33:03.816Z,7.70
2022-09-04T03:35:55.490Z,7.60
2022-09-04T03:38:44.164Z,7.60
2022-09-04T03:41:53.565Z,7.50
2022-09-04T03:44:35.831Z,7.60
2022-09-04T03:47:24.962Z,7.70
2022-09-04T03:50:01.169Z,7.70
2022-09-04T03:52:45.522Z,7.70
2022-09-04T03:55:21.999Z,7.70
2022-09-04T03:58:05.002Z,7.70
2022-09-04T04:00:59.774Z,7.70
2022-09-04T04:03:51.397Z,7.70
2022-09-04T04:06:37.056Z,7.70
2022-09-04T04:09:41.184Z,7.70
2022-09-04T04:12:27.560Z,7.70
2022-09-04T04:15:12.364Z,7.70
2022-09-04T04:17:52.158Z,7.60
2022-09-04T04:20:40.553Z,7.70
2022-09-04T04:23:37.731Z,7.70
2022-09-04T04:26:25.992Z,7.80
2022-09-04T04:29:17.767Z,7.90
2022-09-04T04:32:10.652Z,8.00
2022-09-04T04:34:49.283Z,8.00
2022-09-04T04:37:51.951Z,8.10
2022-09-04T04:40:44.734Z,8.10
2022-09-04T04:43:37.787Z,8.20
2022-09-04T04:46:42.610Z,8.30
2022-09-04T04:49:50.650Z,8.30
2022-09-04T04:52:44.924Z,8.40
2022-09-04T04:55:21.400Z,8.50
2022-09-04T04:58:07.953Z,8.70
2022-09-04T05:00:43.083Z,8.80
2022-09-04T05:03:35.242Z,9.00
2022-09-04T05:06:25.896Z,9.20
2022-09-04T05:09:10.750Z,9.30
2022-09-04T05:12:03.787Z,9.40
2022-09-04T05:15:02.858Z,9.50
2022-09-04T05:17:40.931Z,9.70
2022-09-04T05:20:21.162Z,9.90
2022-09-04T05:23:11.819Z,10.00
2022-09-04T05:25:48.621Z,10.10
2022-09-04T05:28:42.425Z,10.30
2022-09-04T05:31:22.398Z,10.40
2022-09-04T05:33:58.996Z,10.60
2022-09-04T05:36:36.735Z,10.70
2022-09-04T05:39:29.284Z,10.90
2022-09-04T05:42:12.619Z,11.10
2022-09-04T05:44:56.686Z,11.30
2022-09-04T05:47:32.980Z,11.50
2022-09-04T05:50:22.078Z,11.70
2022-09-04T05:53:08.502Z,11.90
2022-09-04T05:56:14.393Z,12.20
2022-09-04T05:59:19.911Z,12.40
2022-09-04T06:02:01.962Z,12.70
2022-09-04T06:04:38.055Z,12.90
2022-09-04T06:07:29.964Z,13.10
2022-09-04T06:10:24.881Z,13.20
2022-09-04T06:13:19.949Z,13.50
2022-09-04T06:16:27.640Z,13.70
2022-09-04T06:19:15.348Z,14.00
2022-09-04T06:22:22.876Z,14.20
2022-09-04T06:24:56.423Z,14.40
2022-09-04T06:28:06.028Z,14.60
2022-09-04T06:30:53.263Z,14.70
2022-09-04T06:33:35.656Z,14.90
2022-09-04T06:36:12.593Z,15.10
2022-09-04T06:39:01.486Z,15.40
2022-09-04T06:41:59.090Z,15.50
2022-09-04T06:44:35.741Z,15.70
2022-09-04T06:47:15.458Z,15.80
2022-09-04T06:49:48.736Z,16.10
2022-09-04T06:52:46.136Z,16.30
2022-09-04T06:55:35.032Z,16.40
2022-09-04T06:58:17.458Z,16.70
2022-09-04T07:00:55.760Z,17.00
2022-09-04T07:03:41.518Z,17.30
2022-09-04T07:06:34.266Z,17.50
2022-09-04T07:09:20.266Z,17.70
2022-09-04T07:12:00.036Z,17.70
2022-09-04T07:14:59.743Z,17.50
2022-09-04T07:18:09.717Z,17.50
2022-09-04T07:20:55.936Z,17.70
2022-09-04T07:23:47.637Z,17.80
2022-09-04T07:26:15.027Z,17.90
2022-09-04T07:28:52.065Z,18.10
2022-09-04T07:31:26.915Z,18.20
2022-09-04T07:34:46.526Z,18.40
2022-09-04T07:37:29.862Z,18.60
2022-09-04T07:40:04.041Z,18.80
2022-09-04T07:42:40.658Z,18.90
2022-09-04T07:45:16.755Z,19.20
2022-09-04T07:47:50.531Z,19.30
2022-09-04T07:50:23.299Z,19.40
2022-09-04T07:53:14.056Z,19.50
2022-09-04T07:56:07.174Z,19.90
2022-09-04T07:59:17.032Z,20.00
2022-09-04T08:02:17.907Z,19.80
2022-09-04T08:05:19.711Z,20.10
2022-09-04T08:08:03.842Z,20.00
2022-09-04T08:10:33.820Z,20.20
2022-09-04T08:13:23.159Z,20.10
2022-09-04T08:16:06.861Z,20.30
2022-09-04T08:18:45.715Z,20.20
2022-09-04T08:21:30.680Z,20.30
2022-09-04T08:24:27.282Z,20.40
2022-09-04T08:27:16.386Z,20.60
2022-09-04T08:30:06.910Z,20.80
2022-09-04T08:33:02.875Z,20.60
2022-09-04T08:35:33.475Z,20.40
2022-09-04T08:38:26.952Z,20.70
2022-09-04T08:41:15.487Z,21.10
2022-09-04T08:44:04.206Z,21.60
2022-09-04T08:46:40.382Z,21.90
2022-09-04T08:49:33.531Z,21.60
2022-09-04T08:52:34.795Z,21.50
2022-09-04T08:55:05.796Z,21.40
2022-09-04T08:58:00.135Z,21.40
2022-09-04T09:00:55.749Z,21.20
2022-09-04T09:03:36.203Z,21.30
2022-09-04T09:06:26.866Z,21.50
2022-09-04T09:09:21.359Z,21.90
2022-09-04T09:11:57.587Z,22.20
2022-09-04T09:14:56.261Z,22.30
2022-09-04T09:17:50.118Z,22.20
2022-09-04T09:20:46.132Z,22.10
2022-09-04T09:23:20.087Z,22.10
2022-09-04T09:26:11.983Z,21.90
2022-09-04T09:29:13.559Z,21.30
2022-09-04T09:32:30.899Z,21.30
2022-09-04T09:35:31.837Z,21.50
2022-09-04T09:38:23.874Z,22.00
2022-09-04T09:41:20.441Z,22.40
2022-09-04T09:43:48.498Z,22.60
2022-09-04T09:46:21.993Z,23.10
2022-09-04T09:49:01.521Z,23.60
2022-09-04T09:51:37.383Z,23.50
2022-09-04T09:54:24.157Z,23.40
2022-09-04T09:57:33.678Z,23.60
2022-09-04T10:00:10.123Z,23.70
2022-09-04T10:03:11.643Z,23.60
2022-09-04T10:05:57.253Z,23.70
2022-09-04T10:08:39.366Z,24.00
2022-09-04T10:11:28.577Z,24.00
2022-09-04T10:14:24.869Z,24.20
2022-09-04T10:17:29.883Z,24.20
2022-09-04T10:20:36.624Z,23.80
2022-09-04T10:23:25.892Z,23.90
2022-09-04T10:25:59.703Z,24.00
2022-09-04T10:28:30.042Z,23.70
2022-09-04T10:31:21.382Z,23.30
2022-09-04T10:34:24.247Z,23.20
2022-09-04T10:37:13.310Z,23.10
2022-09-04T10:40:28.695Z,22.90
2022-09-04T10:43:17.775Z,22.50
2022-09-04T10:45:49.388Z,22.30
2022-09-04T10:48:35.712Z,22.20
2022-09-04T10:51:27.310Z,22.20
2022-09-04T10:54:26.241Z,22.20
2022-09-04T10:57:08.410Z,22.20
2022-09-04T10:59:47.248Z,22.80
2022-09-04T11:02:41.172Z,23.20
2022-09-04T11:05:20.521Z,23.10
2022-09-04T11:08:02.353Z,22.50
2022-09-04T11:10:38.765Z,21.90
2022-09-04T11:13:09.241Z,21.80
2022-09-04T11:15:50.934Z,21.70
2022-09-04T11:18:26.544Z,21.70
2022-09-04T11:21:22.172Z,21.80
2022-09-04T11:24:08.516Z,22.30
2022-09-04T11:27:06.007Z,22.70
2022-09-04T11:30:17.094Z,22.80
2022-09-04T11:32:59.410Z,22.50
2022-09-04T11:35:38.800Z,22.20
2022-09-04T11:38:43.846Z,22.00
2022-09-04T11:41:32.075Z,21.90
2022-09-04T11:44:18.338Z,22.00
2022-09-04T11:47:12.274Z,22.00
2022-09-04T11:50:18.213Z,22.10
2022-09-04T11:53:08.466Z,22.10
2022-09-04T11:56:02.830Z,22.10
2022-09-04T11:58:30.048Z,22.00
2022-09-04T12:01:10.182Z,21.90
2022-09-04T12:04:23.794Z,21.80
2022-09-04T12:07:16.271Z,22.50
2022-09-04T12:10:23.896Z,23.30
2022-09-04T12:13:15.151Z,24.20
2022-09-04T12:16:04.701Z,24.50
2022-09-04T12:19:10.991Z,24.60
2022-09-04T12:21:55.613Z,24.90
2022-09-04T12:24:44.916Z,24.70
2022-09-04T12:27:38.502Z,24.50
2022-09-04T12:30:13.110Z,24.90
2022-09-04T12:32:52.336Z,24.60
2022-09-04T12:35:44.022Z,24.20
2022-09-04T12:38:36.294Z,23.40
2022-09-04T12:41:16.647Z,22.90
2022-09-04T12:43:51.461Z,22.70
2022-09-04T12:46:50.461Z,22.50
2022-09-04T12:49:41.874Z,22.60
2022-09-04T12:52:12.133Z,22.50
2022-09-04T12:55:25.268Z,22.60
2022-09-04T12:58:18.031Z,22.60
2022-09-04T13:00:58.889Z,22.60
2022-09-04T13:03:38.818Z,22.70
2022-09-04T13:06:43.058Z,22.60
2022-09-04T13:09:20.494Z,23.00
2022-09-04T13:12:18.046Z,23.20
2022-09-04T13:15:04.408Z,23.30
2022-09-04T13:17:43.569Z,23.20
2022-09-04T13:20:35.203Z,23.30
2022-09-04T13:23:46.500Z,23.40
2022-09-04T13:26:51.785Z,23.60
2022-09-04T13:29:40.585Z,23.60
2022-09-04T13:32:49.059Z,23.40
2022-09-04T13:35:59.451Z,23.30
2022-09-04T13:39:01.624Z,22.50
2022-09-04T13:41:42.247Z,21.90
2022-09-04T13:44:44.095Z,21.60
2022-09-04T13:47:45.098Z,21.60
2022-09-04T13:50:25.872Z,21.60
2022-09-04T13:53:00.681Z,21.50
2022-09-04T13:55:40.342Z,21.90
2022-09-04T13:58:24.077Z,22.40
2022-09-04T14:01:06.536Z,22.90
2022-09-04T14:04:03.003Z,23.30
2022-09-04T14:06:32.349Z,23.70
2022-09-04T14:09:05.571Z,23.90
2022-09-04T14:11:58.268Z,23.70
2022-09-04T14:14:50.113Z,23.60
2022-09-04T14:17:27.005Z,23.60
2022-09-04T14:20:12.340Z,23.50
2022-09-04T14:23:03.806Z,23.60
2022-09-04T14:25:43.827Z,23.60
2022-09-04T14:28:23.243Z,23.70
2022-09-04T14:30:54.904Z,23.60
2022-09-04T14:33:56.913Z,23.00
2022-09-04T14:36:56.650Z,22.80
2022-09-04T14:39:37.441Z,23.00
2022-09-04T14:42:19.946Z,22.80
2022-09-04T14:45:30.163Z,22.40
2022-09-04T14:48:04.957Z,22.10
2022-09-04T14:50:45.687Z,22.00
2022-09-04T14:53:26.496Z,21.90
2022-09-04T14:56:24.179Z,21.90
2022-09-04T14:59:07.226Z,21.80
2022-09-04T15:01:54.749Z,21.80
2022-09-04T15:04:34.189Z,21.70
2022-09-04T15:07:25.183Z,21.60
2022-09-04T15:09:53.658Z,21.60
2022-09-04T15:12:30.832Z,21.70
2022-09-04T15:15:21.825Z,21.60
2022-09-04T15:18:00.981Z,21.70
2022-09-04T15:20:31.813Z,21.60
2022-09-04T15:23:06.589Z,21.50
2022-09-04T15:25:58.746Z,21.50
2022-09-04T15:28:46.213Z,21.40
2022-09-04T15:31:20.378Z,21.40
2022-09-04T15:33:49.141Z,21.30
2022-09-04T15:36:23.723Z,21.40
2022-09-04T15:39:02.871Z,21.30
2022-09-04T15:41:34.120Z,21.30
2022-09-04T15:44:27.838Z,21.30
2022-09-04T15:47:17.201Z,21.20
2022-09-04T15:49:55.445Z,21.10
2022-09-04T15:52:46.585Z,21.10
2022-09-04T15:55:28.181Z,21.10
2022-09-04T15:57:59.952Z,21.10
2022-09-04T16:00:32.100Z,21.10
2022-09-04T16:03:36.638Z,20.90
2022-09-04T16:06:09.521Z,20.90
2022-09-04T16:08:47.369Z,20.80
2022-09-04T16:11:29.314Z,20.90
2022-09-04T16:13:59.407Z,20.80
2022-09-04T16:16:49.577Z,20.70
2022-09-04T16:19:32.709Z,20.60
2022-09-04T16:22:09.020Z,20.60
2022-09-04T16:24:45.869Z,20.50
2022-09-04T16:27:21.097Z,20.40
2022-09-04T16:30:03.001Z,20.30
2022-09-04T16:32:34.203Z,20.20
2022-09-04T16:35:21.423Z,20.20
2022-09-04T16:37:59.435Z,20.10
2022-09-04T16:40:40.216Z,20.00
2022-09-04T16:43:28.780Z,19.90
2022-09-04T16:46:14.987Z,19.80
2022-09-04T16:48:57.953Z,19.80
2022-09-04T16:51:41.067Z,19.80
2022-09-04T16:54:31.464Z,19.70
2022-09-04T16:57:15.088Z,19.60
2022-09-04T16:59:43.631Z,19.50
2022-09-04T17:02:36.257Z,19.50
2022-09-04T17:05:18.951Z,19.50
2022-09-04T17:07:59.168Z,19.40
2022-09-04T17:10:36.557Z,19.30
2022-09-04T17:13:38.127Z,19.20
2022-09-04T17:16:17.980Z,19.10
2022-09-04T17:18:54.134Z,19.10
2022-09-04T17:28:54.143Z,19.00
2022-09-04T17:28:56.583Z,19.00
2022-09-04T17:29:09.938Z,19.00
2022-09-04T17:31:17.459Z,18.90
2022-09-04T17:37:32.856Z,18.80
2022-09-04T17:40:36.705Z,18.70
2022-09-04T17:40:46.713Z,18.60
2022-09-04T17:43:23.671Z,18.60
2022-09-04T17:46:02.552Z,18.50
2022-09-04T17:48:39.787Z,18.40
2022-09-04T17:51:08.792Z,18.40
2022-09-04T17:53:39.879Z,18.30
2022-09-04T17:56:13.706Z,18.20
2022-09-04T17:58:50.359Z,18.20
2022-09-04T18:01:25.267Z,18.10
2022-09-04T18:04:21.688Z,17.90
2022-09-04T18:07:28.718Z,17.80
2022-09-04T18:10:36.035Z,17.70
2022-09-04T18:13:36.617Z,17.60
2022-09-04T18:16:27.060Z,17.40
2022-09-04T18:19:16.236Z,17.30
2022-09-04T18:22:25.202Z,17.10
2022-09-04T18:24:53.448Z,17.10
2022-09-04T18:27:28.804Z,17.10
2022-09-04T18:32:31.761Z,17.10
2022-09-04T18:37:18.592Z,17.10
2022-09-04T18:37:26.391Z,17.10
2022-09-04T18:39:22.940Z,17.00
2022-09-04T18:47:30.590Z,17.00
2022-09-04T18:50:38.906Z,16.80
2022-09-04T18:50:49.496Z,16.70
2022-09-04T18:53:44.149Z,16.70
2022-09-04T18:56:20.789Z,16.70
2022-09-04T18:59:16.931Z,16.70
2022-09-04T19:02:02.711Z,16.60
2022-09-04T19:05:00.133Z,16.60
2022-09-04T19:07:51.996Z,16.60
2022-09-04T19:10:25.679Z,16.70
2022-09-04T19:13:02.867Z,16.70
2022-09-04T19:15:46.116Z,16.70
2022-09-04T19:18:41.852Z,16.70
2022-09-04T19:21:09.923Z,16.80
2022-09-04T19:23:41.710Z,16.90
2022-09-04T19:26:38.732Z,16.90
2022-09-04T19:29:32.521Z,17.00
2022-09-04T19:32:08.470Z,17.00
2022-09-04T19:34:38.929Z,17.00
2022-09-04T19:38:25.724Z,17.10
2022-09-04T19:46:01.428Z,17.00
2022-09-04T19:46:19.779Z,17.00
2022-09-04T19:46:54.120Z,17.10
2022-09-04T19:51:33.898Z,17.00
2022-09-04T19:53:30.584Z,17.00
2022-09-04T19:55:25.378Z,16.90
2022-09-04T19:58:42.588Z,16.80
2022-09-04T20:01:23.089Z,16.80
2022-09-04T20:04:08.797Z,16.70
2022-09-04T20:06:59.413Z,16.70
2022-09-04T20:09:40.056Z,16.70
2022-09-04T20:12:34.657Z,16.60
2022-09-04T20:15:14.435Z,16.60
2022-09-04T20:18:04.364Z,16.60
2022-09-04T20:21:07.866Z,16.50
2022-09-04T20:23:57.726Z,16.40
2022-09-04T20:26:32.313Z,16.40
2022-09-04T20:29:19.307Z,16.40
2022-09-04T20:31:58.906Z,16.40
2022-09-04T20:34:43.763Z,16.30
2022-09-04T20:37:33.447Z,16.20
2022-09-04T20:40:27.105Z,16.20
2022-09-04T20:43:03.559Z,16.10
2022-09-04T20:49:39.039Z,16.00
2022-09-04T20:52:54.029Z,16.00
2022-09-04T20:52:56.250Z,16.10
2022-09-04T20:54:39.063Z,16.00
2022-09-04T21:02:34.690Z,15.90
2022-09-04T21:03:19.367Z,15.70
2022-09-04T21:03:29.962Z,15.70
2022-09-04T21:06:24.577Z,15.60
2022-09-04T21:09:31.797Z,15.60
2022-09-04T21:12:20.295Z,15.50
2022-09-04T21:14:54.567Z,15.50
2022-09-04T21:17:42.995Z,15.50
2022-09-04T21:20:16.739Z,15.50
2022-09-04T21:23:15.696Z,15.50
2022-09-04T21:26:13.378Z,15.40
2022-09-04T21:29:06.132Z,15.50
2022-09-04T21:32:06.047Z,15.50
2022-09-04T21:34:52.358Z,15.50
2022-09-04T21:37:39.999Z,15.50
2022-09-04T21:40:51.949Z,15.50
2022-09-04T21:43:35.519Z,15.40
2022-09-04T21:46:13.046Z,15.40
2022-09-04T21:49:07.865Z,15.40
2022-09-04T21:51:56.079Z,15.30
2022-09-04T21:57:02.772Z,15.20
2022-09-04T22:02:25.955Z,15.20
2022-09-04T22:02:40.787Z,15.20
2022-09-04T22:04:15.442Z,15.20
2022-09-04T22:09:00.137Z,15.10
2022-09-04T22:13:30.138Z,15.10
2022-09-04T22:13:43.376Z,15.10
2022-09-04T22:16:33.814Z,15.10
2022-09-04T22:19:39.747Z,15.10
2022-09-04T22:22:25.687Z,15.10
2022-09-04T22:25:19.942Z,15.10
2022-09-04T22:28:25.948Z,15.10
2022-09-04T22:31:11.472Z,15.00
2022-09-04T22:34:15.191Z,14.90
2022-09-04T22:37:21.565Z,14.80
2022-09-04T22:40:12.830Z,14.70
2022-09-04T22:42:57.505Z,14.70
2022-09-04T22:45:39.483Z,14.60
2022-09-04T22:49:11.748Z,14.50
2022-09-04T22:52:00.883Z,14.40
2022-09-04T22:54:34.673Z,14.40
2022-09-04T22:57:07.607Z,14.30
2022-09-04T23:00:12.657Z,14.30
2022-09-04T23:03:07.784Z,14.20
2022-09-04T23:06:32.509Z,14.20
2022-09-04T23:13:48.829Z,14.10
2022-09-04T23:13:48.889Z,14.00
2022-09-04T23:15:48.114Z,14.00
2022-09-04T23:20:30.328Z,13.90
2022-09-04T23:26:36.538Z,13.90
2022-09-04T23:26:53.434Z,13.90
2022-09-04T23:27:43.854Z,13.90
2022-09-04T23:30:25.814Z,13.90
2022-09-04T23:33:15.120Z,13.80
2022-09-04T23:36:37.849Z,13.70
2022-09-04T23:40:11.355Z,13.80
2022-09-04T23:43:18.881Z,13.70
2022-09-04T23:46:23.756Z,13.60
2022-09-04T23:49:37.759Z,13.50
2022-09-04T23:52:46.213Z,13.50
2022-09-04T23:55:55.697Z,13.40
2022-09-04T23:59:22.660Z,13.30
